createdAt,value
2022-11-24T00:00:47.914Z,997.18
2022-11-24T00:03:47.912Z,997.22
2022-11-24T00:06:47.911Z,997.2
2022-11-24T00:09:47.923Z,997.26
2022-11-24T00:12:47.920Z,997.25
2022-11-24T00:15:47.915Z,997.23
2022-11-24T00:18:47.941Z,997.29
2022-11-24T00:21:47.917Z,997.25
2022-11-24T00:24:47.912Z,997.25
2022-11-24T00:27:47.925Z,997.3
2022-11-24T00:30:47.974Z,997.28
2022-11-24T00:33:47.916Z,997.31
2022-11-24T00:36:47.911Z,997.32
2022-11-24T00:39:47.908Z,997.43
2022-11-24T00:42:47.919Z,997.42
2022-11-24T00:45:48.075Z,997.51
2022-11-24T00:48:47.935Z,997.59
2022-11-24T00:51:47.943Z,997.65
2022-11-24T00:54:47.949Z,997.63
2022-11-24T00:57:47.935Z,997.62
2022-11-24T01:00:47.936Z,997.62
2022-11-24T01:03:47.939Z,997.69
2022-11-24T01:06:47.940Z,997.79
2022-11-24T01:09:47.932Z,997.84
2022-11-24T01:12:47.935Z,997.88
2022-11-24T01:15:47.990Z,997.89
2022-11-24T01:18:47.951Z,997.84
2022-11-24T01:21:47.933Z,997.88
2022-11-24T01:24:47.942Z,997.88
2022-11-24T01:27:47.938Z,997.92
2022-11-24T01:30:47.978Z,998.04
2022-11-24T01:33:47.947Z,998.04
2022-11-24T01:36:47.951Z,998.06
2022-11-24T01:39:47.939Z,998.06
2022-11-24T01:42:47.944Z,998.09
2022-11-24T01:45:48.015Z,998.15
2022-11-24T01:48:47.943Z,998.16
2022-11-24T01:51:47.937Z,998.15
2022-11-24T01:54:47.996Z,998.12
2022-11-24T01:57:47.940Z,998.17
2022-11-24T02:00:47.934Z,998.17
2022-11-24T02:03:47.928Z,998.24
2022-11-24T02:06:47.934Z,998.24
2022-11-24T02:09:47.925Z,998.25
2022-11-24T02:12:47.976Z,998.32
2022-11-24T02:15:48.027Z,998.31
2022-11-24T02:18:47.930Z,998.31
2022-11-24T02:21:47.933Z,998.31
2022-11-24T02:24:47.930Z,998.35
2022-11-24T02:27:52.333Z,998.36
2022-11-24T02:30:48.003Z,998.38
2022-11-24T02:33:47.927Z,998.37
2022-11-24T02:36:47.925Z,998.36
2022-11-24T02:39:47.932Z,998.34
2022-11-24T02:42:47.926Z,998.33
2022-11-24T02:45:47.923Z,998.3
2022-11-24T02:48:47.921Z,998.29
2022-11-24T02:51:47.921Z,998.26
2022-11-24T02:54:47.921Z,998.2
2022-11-24T02:57:47.918Z,998.25
2022-11-24T03:00:47.926Z,998.26
2022-11-24T03:03:47.919Z,998.34
2022-11-24T03:06:47.922Z,998.4
2022-11-24T03:09:47.913Z,998.41
2022-11-24T03:12:47.917Z,998.4
2022-11-24T03:15:47.957Z,998.39
2022-11-24T03:18:47.915Z,998.41
2022-11-24T03:21:47.910Z,998.42
2022-11-24T03:24:47.915Z,998.5
2022-11-24T03:27:47.906Z,998.48
2022-11-24T03:30:47.932Z,998.47
2022-11-24T03:33:47.906Z,998.47
2022-11-24T03:36:47.907Z,998.43
2022-11-24T03:39:47.905Z,998.45
2022-11-24T03:42:47.904Z,998.45
2022-11-24T03:45:47.908Z,998.45
2022-11-24T03:48:47.905Z,998.43
2022-11-24T03:51:47.896Z,998.38
2022-11-24T03:54:47.992Z,998.32
2022-11-24T03:57:47.900Z,998.28
2022-11-24T04:00:47.897Z,998.36
2022-11-24T04:03:47.902Z,998.54
2022-11-24T04:06:47.890Z,998.52
2022-11-24T04:09:47.888Z,998.54
2022-11-24T04:12:47.893Z,998.66
2022-11-24T04:15:48.001Z,998.62
2022-11-24T04:18:47.901Z,998.66
2022-11-24T04:21:47.895Z,998.73
2022-11-24T04:24:48.022Z,998.73
2022-11-24T04:27:47.891Z,998.76
2022-11-24T04:30:47.884Z,998.82
2022-11-24T04:33:47.890Z,998.81
2022-11-24T04:36:47.956Z,998.88
2022-11-24T04:39:47.971Z,998.88
2022-11-24T04:42:47.947Z,998.91
2022-11-24T04:45:47.958Z,998.88
2022-11-24T04:48:47.963Z,998.87
2022-11-24T04:51:47.957Z,998.9
2022-11-24T04:54:47.971Z,998.91
2022-11-24T04:57:47.948Z,998.99
2022-11-24T05:00:47.962Z,999.06
2022-11-24T05:03:47.975Z,999.03
2022-11-24T05:06:47.942Z,999.12
2022-11-24T05:09:58.771Z,999.12
2022-11-24T05:12:51.225Z,999.15
2022-11-24T05:15:47.981Z,999.19
2022-11-24T05:18:47.948Z,999.16
2022-11-24T05:21:47.957Z,999.17
2022-11-24T05:24:47.960Z,999.17
2022-11-24T05:27:47.963Z,999.21
2022-11-24T05:30:47.945Z,999.23
2022-11-24T05:33:48.005Z,999.28
2022-11-24T05:36:47.958Z,999.3
2022-11-24T05:39:47.951Z,999.35
2022-11-24T05:42:48.448Z,999.39
2022-11-24T05:45:47.959Z,999.44
2022-11-24T05:48:47.940Z,999.51
2022-11-24T05:51:47.940Z,999.49
2022-11-24T05:54:47.931Z,999.54
2022-11-24T05:57:47.944Z,999.54
2022-11-24T06:00:47.939Z,999.53
2022-11-24T06:03:47.938Z,999.53
2022-11-24T06:06:47.950Z,999.6
2022-11-24T06:09:47.933Z,999.61
2022-11-24T06:12:47.933Z,999.61
2022-11-24T06:15:47.937Z,999.61
2022-11-24T06:18:47.931Z,999.63
2022-11-24T06:21:47.926Z,999.65
2022-11-24T06:24:47.949Z,999.63
2022-11-24T06:27:47.934Z,999.74
2022-11-24T06:30:47.948Z,999.75
2022-11-24T06:33:47.946Z,999.78
2022-11-24T06:36:47.945Z,999.84
2022-11-24T06:39:47.942Z,999.85
2022-11-24T06:42:47.941Z,999.89
2022-11-24T06:45:48.020Z,999.91
2022-11-24T06:48:47.940Z,999.89
2022-11-24T06:51:47.950Z,999.89
2022-11-24T06:54:47.945Z,999.85
2022-11-24T06:57:47.946Z,999.89
2022-11-24T07:00:48.071Z,999.94
2022-11-24T07:03:47.950Z,1000
2022-11-24T07:06:47.942Z,1000.02
2022-11-24T07:09:47.931Z,1000.05
2022-11-24T07:12:47.939Z,1000.04
2022-11-24T07:15:47.934Z,1000
2022-11-24T07:18:47.940Z,1000.05
2022-11-24T07:21:47.934Z,1000.14
2022-11-24T07:24:47.926Z,1000.15
2022-11-24T07:27:47.940Z,1000.16
2022-11-24T07:30:47.929Z,1000.21
2022-11-24T07:33:47.925Z,1000.25
2022-11-24T07:36:47.941Z,1000.26
2022-11-24T07:39:47.924Z,1000.28
2022-11-24T07:42:47.915Z,1000.32
2022-11-24T07:45:47.980Z,1000.4
2022-11-24T07:48:47.925Z,1000.42
2022-11-24T07:51:47.913Z,1000.5
2022-11-24T07:54:47.908Z,1000.46
2022-11-24T07:57:47.913Z,1000.53
2022-11-24T08:00:47.914Z,1000.51
2022-11-24T08:03:47.989Z,1000.55
2022-11-24T08:06:47.958Z,1000.59
2022-11-24T08:09:47.913Z,1000.65
2022-11-24T08:12:47.913Z,1000.71
2022-11-24T08:15:47.912Z,1000.72
2022-11-24T08:18:47.921Z,1000.72
2022-11-24T08:21:47.913Z,1000.77
2022-11-24T08:24:47.905Z,1000.83
2022-11-24T08:27:47.917Z,1000.85
2022-11-24T08:30:47.906Z,1000.88
2022-11-24T08:33:47.912Z,1000.89
2022-11-24T08:36:47.901Z,1000.85
2022-11-24T08:39:47.952Z,1000.95
2022-11-24T08:42:47.901Z,1001.03
2022-11-24T08:45:47.952Z,1001.06
2022-11-24T08:48:47.912Z,1001.1
2022-11-24T08:51:47.899Z,1001.09
2022-11-24T08:54:47.899Z,1001.12
2022-11-24T08:57:47.902Z,1001.19
2022-11-24T09:00:48.001Z,1001.2
2022-11-24T09:03:50.575Z,1001.13
2022-11-24T09:06:47.914Z,1001.14
2022-11-24T09:09:47.904Z,1001.19
2022-11-24T09:12:47.910Z,1001.26
2022-11-24T09:15:47.908Z,1001.23
2022-11-24T09:18:47.906Z,1001.3
2022-11-24T09:21:47.903Z,1001.28
2022-11-24T09:24:47.916Z,1001.32
2022-11-24T09:27:47.907Z,1001.36
2022-11-24T09:30:47.973Z,1001.35
2022-11-24T09:33:47.893Z,1001.42
2022-11-24T09:36:47.913Z,1001.45
2022-11-24T09:39:47.915Z,1001.49
2022-11-24T09:42:52.170Z,1001.47
2022-11-24T09:46:04.275Z,1001.55
2022-11-24T09:48:47.918Z,1001.59
2022-11-24T09:51:47.896Z,1001.62
2022-11-24T09:54:47.904Z,1001.66
2022-11-24T09:57:47.908Z,1001.71
2022-11-24T10:00:47.908Z,1001.71
2022-11-24T10:03:47.907Z,1001.71
2022-11-24T10:06:47.911Z,1001.69
2022-11-24T10:09:47.901Z,1001.73
2022-11-24T10:12:47.912Z,1001.75
2022-11-24T10:15:48.004Z,1001.85
2022-11-24T10:18:47.901Z,1001.84
2022-11-24T10:21:47.908Z,1001.86
2022-11-24T10:24:47.910Z,1001.84
2022-11-24T10:27:47.905Z,1001.88
2022-11-24T10:30:47.960Z,1001.91
2022-11-24T10:33:47.917Z,1001.95
2022-11-24T10:36:47.908Z,1002.01
2022-11-24T10:39:47.902Z,1002.05
2022-11-24T10:42:47.903Z,1002.09
2022-11-24T10:45:47.995Z,1002.08
2022-11-24T10:48:47.897Z,1002.09
2022-11-24T10:51:47.902Z,1002.13
2022-11-24T10:54:47.889Z,1002.07
2022-11-24T10:57:47.907Z,1002.07
2022-11-24T11:00:47.894Z,1002.1
2022-11-24T11:03:47.973Z,1002.11
2022-11-24T11:06:47.894Z,1002.14
2022-11-24T11:09:47.907Z,1002.14
2022-11-24T11:12:47.913Z,1002.18
2022-11-24T11:15:47.941Z,1002.17
2022-11-24T11:18:47.878Z,1002.19
2022-11-24T11:21:47.887Z,1002.19
2022-11-24T11:24:47.881Z,1002.21
2022-11-24T11:27:47.874Z,1002.29
2022-11-24T11:31:18.387Z,1002.31
2022-11-24T11:34:05.221Z,1002.34
2022-11-24T11:36:47.886Z,1002.36
2022-11-24T11:39:48.969Z,1002.34
2022-11-24T11:43:02.179Z,1002.4
2022-11-24T11:45:47.915Z,1002.42
2022-11-24T11:48:47.869Z,1002.45
2022-11-24T11:51:47.948Z,1002.5
2022-11-24T11:54:47.876Z,1002.43
2022-11-24T11:57:47.865Z,1002.43
2022-11-24T12:00:47.863Z,1002.49
2022-11-24T12:03:47.985Z,1002.43
2022-11-24T12:06:47.861Z,1002.42
2022-11-24T12:09:47.861Z,1002.45
2022-11-24T12:12:47.858Z,1002.49
2022-11-24T12:15:47.868Z,1002.54
2022-11-24T12:18:57.871Z,1002.59
2022-11-24T12:21:47.854Z,1002.64
2022-11-24T12:24:47.929Z,1002.66
2022-11-24T12:27:47.852Z,1002.64
2022-11-24T12:30:47.863Z,1002.7
2022-11-24T12:33:51.672Z,1002.73
2022-11-24T12:36:47.851Z,1002.74
2022-11-24T12:39:47.849Z,1002.74
2022-11-24T12:42:47.863Z,1002.75
2022-11-24T12:45:47.848Z,1002.8
2022-11-24T12:48:47.839Z,1002.75
2022-11-24T12:51:47.843Z,1002.78
2022-11-24T12:54:47.841Z,1002.82
2022-11-24T12:57:47.834Z,1002.84
2022-11-24T13:00:47.839Z,1002.83
2022-11-24T13:03:47.837Z,1002.83
2022-11-24T13:06:49.488Z,1002.88
2022-11-24T13:09:47.835Z,1002.89
2022-11-24T13:12:47.838Z,1002.89
2022-11-24T13:15:50.576Z,1002.9
2022-11-24T13:18:47.905Z,1002.86
2022-11-24T13:21:47.831Z,1002.91
2022-11-24T13:24:47.835Z,1002.92
2022-11-24T13:27:47.837Z,1002.93
2022-11-24T13:30:47.829Z,1002.95
2022-11-24T13:33:47.827Z,1003
2022-11-24T13:36:47.827Z,1003.08
2022-11-24T13:39:50.443Z,1003.07
2022-11-24T13:42:47.825Z,1003.11
2022-11-24T13:45:47.844Z,1003.1
2022-11-24T13:48:47.817Z,1003.13
2022-11-24T13:51:47.825Z,1003.11
2022-11-24T13:54:47.816Z,1003.09
2022-11-24T13:57:47.835Z,1003.09
2022-11-24T14:00:47.814Z,1003.11
2022-11-24T14:04:07.480Z,1003.17
2022-11-24T14:06:47.819Z,1003.2
2022-11-24T14:09:47.835Z,1003.13
2022-11-24T14:12:47.812Z,1003.09
2022-11-24T14:15:47.861Z,1003.01
2022-11-24T14:18:47.808Z,1003.01
2022-11-24T14:21:47.813Z,1003.02
2022-11-24T14:24:48.032Z,1003.07
2022-11-24T14:27:47.806Z,1003.13
2022-11-24T14:30:47.810Z,1003.14
2022-11-24T14:33:47.809Z,1003.16
2022-11-24T14:36:47.812Z,1003.2
2022-11-24T14:39:47.803Z,1003.19
2022-11-24T14:42:47.808Z,1003.18
2022-11-24T14:45:47.810Z,1003.15
2022-11-24T14:48:47.807Z,1003.16
2022-11-24T14:51:47.806Z,1003.17
2022-11-24T14:54:47.810Z,1003.16
2022-11-24T14:57:47.860Z,1003.16
2022-11-24T15:00:47.876Z,1003.23
2022-11-24T15:03:47.818Z,1003.23
2022-11-24T15:06:47.817Z,1003.27
2022-11-24T15:09:47.813Z,1003.28
2022-11-24T15:12:47.811Z,1003.34
2022-11-24T15:15:47.875Z,1003.36
2022-11-24T15:18:47.824Z,1003.39
2022-11-24T15:21:47.817Z,1003.41
2022-11-24T15:24:47.816Z,1003.42
2022-11-24T15:27:47.810Z,1003.48
2022-11-24T15:30:47.802Z,1003.5
2022-11-24T15:33:47.798Z,1003.52
2022-11-24T15:36:47.814Z,1003.51
2022-11-24T15:39:47.809Z,1003.53
2022-11-24T15:42:47.798Z,1003.56
2022-11-24T15:45:47.795Z,1003.66
2022-11-24T15:48:47.796Z,1003.69
2022-11-24T15:51:47.799Z,1003.69
2022-11-24T15:54:47.812Z,1003.74
2022-11-24T15:57:47.794Z,1003.75
2022-11-24T16:00:47.905Z,1003.76
2022-11-24T16:03:48.951Z,1003.79
2022-11-24T16:06:47.807Z,1003.83
2022-11-24T16:09:47.788Z,1003.83
2022-11-24T16:12:47.797Z,1003.89
2022-11-24T16:15:47.782Z,1003.87
2022-11-24T16:18:47.795Z,1003.89
2022-11-24T16:21:47.799Z,1003.85
2022-11-24T16:24:47.781Z,1003.85
2022-11-24T16:27:47.787Z,1003.86
2022-11-24T16:30:47.778Z,1003.89
2022-11-24T16:33:47.798Z,1003.97
2022-11-24T16:36:47.777Z,1004.04
2022-11-24T16:39:50.141Z,1004.07
2022-11-24T16:42:47.780Z,1004.07
2022-11-24T16:45:47.813Z,1004.06
2022-11-24T16:48:47.775Z,1004.06
2022-11-24T16:51:47.775Z,1004.01
2022-11-24T16:54:47.771Z,1004.04
2022-11-24T16:57:47.769Z,1004.01
2022-11-24T17:00:47.820Z,1004.1
2022-11-24T17:03:47.766Z,1004.08
2022-11-24T17:06:47.767Z,1004.12
2022-11-24T17:09:47.771Z,1004.15
2022-11-24T17:12:47.768Z,1004.17
2022-11-24T17:15:52.684Z,1004.2
2022-11-24T17:18:47.766Z,1004.2
2022-11-24T17:21:47.765Z,1004.19
2022-11-24T17:24:47.761Z,1004.24
2022-11-24T17:27:47.763Z,1004.24
2022-11-24T17:30:47.760Z,1004.26
2022-11-24T17:33:47.761Z,1004.29
2022-11-24T17:36:47.771Z,1004.27
2022-11-24T17:40:05.876Z,1004.29
2022-11-24T17:42:47.758Z,1004.28
2022-11-24T17:45:47.822Z,1004.33
2022-11-24T17:48:47.762Z,1004.39
2022-11-24T17:51:47.757Z,1004.4
2022-11-24T17:54:47.752Z,1004.43
2022-11-24T17:57:47.751Z,1004.44
2022-11-24T18:00:47.802Z,1004.46
2022-11-24T18:03:50.425Z,1004.5
2022-11-24T18:06:47.778Z,1004.52
2022-11-24T18:09:47.745Z,1004.57
2022-11-24T18:12:47.742Z,1004.58
2022-11-24T18:15:47.745Z,1004.59
2022-11-24T18:18:50.200Z,1004.58
2022-11-24T18:21:47.737Z,1004.56
2022-11-24T18:24:47.740Z,1004.58
2022-11-24T18:27:47.750Z,1004.65
2022-11-24T18:30:47.733Z,1004.69
2022-11-24T18:33:47.732Z,1004.67
2022-11-24T18:36:47.743Z,1004.64
2022-11-24T18:39:47.731Z,1004.6
2022-11-24T18:42:47.738Z,1004.68
2022-11-24T18:45:47.814Z,1004.7
2022-11-24T18:48:47.745Z,1004.69
2022-11-24T18:51:47.730Z,1004.61
2022-11-24T18:54:47.727Z,1004.54
2022-11-24T18:57:47.724Z,1004.58
2022-11-24T19:00:47.786Z,1004.59
2022-11-24T19:03:48.872Z,1004.63
2022-11-24T19:06:47.721Z,1004.67
2022-11-24T19:09:47.788Z,1004.65
2022-11-24T19:12:47.712Z,1004.62
2022-11-24T19:15:47.720Z,1004.56
2022-11-24T19:18:53.280Z,1004.53
2022-11-24T19:21:47.714Z,1004.53
2022-11-24T19:24:47.714Z,1004.57
2022-11-24T19:27:47.721Z,1004.55
2022-11-24T19:30:47.726Z,1004.49
2022-11-24T19:33:47.730Z,1004.44
2022-11-24T19:36:47.711Z,1004.44
2022-11-24T19:39:47.717Z,1004.53
2022-11-24T19:42:47.724Z,1004.54
2022-11-24T19:45:47.789Z,1004.53
2022-11-24T19:48:47.729Z,1004.57
2022-11-24T19:51:47.722Z,1004.56
2022-11-24T19:54:47.725Z,1004.58
2022-11-24T19:57:47.718Z,1004.54
2022-11-24T20:00:47.711Z,1004.5
2022-11-24T20:03:47.712Z,1004.53
2022-11-24T20:06:47.766Z,1004.54
2022-11-24T20:09:47.713Z,1004.57
2022-11-24T20:12:47.710Z,1004.55
2022-11-24T20:15:47.717Z,1004.58
2022-11-24T20:18:47.733Z,1004.61
2022-11-24T20:21:47.739Z,1004.6
2022-11-24T20:24:47.719Z,1004.59
2022-11-24T20:27:47.697Z,1004.65
2022-11-24T20:30:47.771Z,1004.65
2022-11-24T20:33:47.712Z,1004.67
2022-11-24T20:36:47.705Z,1004.69
2022-11-24T20:39:47.709Z,1004.67
2022-11-24T20:42:47.709Z,1004.65
2022-11-24T20:45:47.726Z,1004.64
2022-11-24T20:48:47.689Z,1004.69
2022-11-24T20:51:47.791Z,1004.7
2022-11-24T20:54:47.692Z,1004.66
2022-11-24T20:57:47.694Z,1004.67
2022-11-24T21:00:47.706Z,1004.64
2022-11-24T21:03:47.689Z,1004.6
2022-11-24T21:06:47.690Z,1004.59
2022-11-24T21:09:47.689Z,1004.57
2022-11-24T21:12:47.686Z,1004.58
2022-11-24T21:15:47.684Z,1004.6
2022-11-24T21:18:47.685Z,1004.67
2022-11-24T21:21:47.825Z,1004.69
2022-11-24T21:24:47.688Z,1004.75
2022-11-24T21:27:47.694Z,1004.79
2022-11-24T21:30:47.826Z,1004.83
2022-11-24T21:33:47.700Z,1004.85
2022-11-24T21:36:47.694Z,1004.86
2022-11-24T21:39:47.733Z,1004.81
2022-11-24T21:42:47.702Z,1004.78
2022-11-24T21:45:47.744Z,1004.8
2022-11-24T21:48:47.698Z,1004.74
2022-11-24T21:51:47.690Z,1004.81
2022-11-24T21:54:47.681Z,1004.89
2022-11-24T21:57:47.687Z,1004.85
2022-11-24T22:00:47.716Z,1004.86
2022-11-24T22:03:47.696Z,1004.84
2022-11-24T22:06:47.690Z,1004.82
2022-11-24T22:09:47.685Z,1004.83
2022-11-24T22:12:47.686Z,1004.87
2022-11-24T22:15:47.833Z,1004.89
2022-11-24T22:18:47.820Z,1004.86
2022-11-24T22:21:47.756Z,1004.82
2022-11-24T22:24:47.686Z,1004.83
2022-11-24T22:27:47.673Z,1004.82
2022-11-24T22:30:47.799Z,1004.81
2022-11-24T22:33:47.681Z,1004.77
2022-11-24T22:36:47.678Z,1004.79
2022-11-24T22:39:47.675Z,1004.8
2022-11-24T22:42:47.865Z,1004.79
2022-11-24T22:45:47.731Z,1004.76
2022-11-24T22:48:47.683Z,1004.74
2022-11-24T22:51:47.694Z,1004.69
2022-11-24T22:54:47.705Z,1004.66
2022-11-24T22:57:48.515Z,1004.66
2022-11-24T23:00:47.727Z,1004.71
2022-11-24T23:03:47.737Z,1004.69
2022-11-24T23:06:47.679Z,1004.67
2022-11-24T23:09:47.688Z,1004.69
2022-11-24T23:12:47.672Z,1004.75
2022-11-24T23:15:47.673Z,1004.7
2022-11-24T23:18:51.141Z,1004.66
2022-11-24T23:21:47.673Z,1004.72
2022-11-24T23:24:47.674Z,1004.75
2022-11-24T23:27:47.671Z,1004.78
2022-11-24T23:30:47.675Z,1004.77
2022-11-24T23:33:47.688Z,1004.74
2022-11-24T23:36:47.662Z,1004.73
2022-11-24T23:39:47.666Z,1004.78
2022-11-24T23:42:47.663Z,1004.8
2022-11-24T23:45:47.741Z,1004.79
2022-11-24T23:48:47.661Z,1004.81
2022-11-24T23:51:47.661Z,1004.78
2022-11-24T23:54:47.669Z,1004.8
2022-11-24T23:57:47.660Z,1004.77
